createdAt,value
2019-05-16T00:00:01.834Z,100.00
2019-05-16T00:02:30.512Z,100.00
2019-05-16T00:04:59.278Z,100.00
2019-05-16T00:07:28.316Z,100.00
2019-05-16T00:09:59.023Z,100.00
2019-05-16T00:12:29.143Z,100.00
2019-05-16T00:14:58.218Z,100.00
2019-05-16T00:17:28.406Z,100.00
2019-05-16T00:19:58.950Z,100.00
2019-05-16T00:22:28.759Z,100.00
2019-05-16T00:24:58.041Z,100.00
2019-05-16T00:27:28.037Z,100.00
2019-05-16T00:29:58.172Z,100.00
2019-05-16T00:32:28.153Z,100.00
2019-05-16T00:34:58.341Z,100.00
2019-05-16T00:37:28.729Z,100.00
2019-05-16T00:39:58.815Z,100.00
2019-05-16T00:42:28.680Z,100.00
2019-05-16T00:44:58.341Z,100.00
2019-05-16T00:47:28.422Z,100.00
2019-05-16T00:49:58.230Z,100.00
2019-05-16T00:52:28.835Z,100.00
2019-05-16T00:54:57.983Z,100.00
2019-05-16T00:57:28.283Z,100.00
2019-05-16T00:59:59.165Z,100.00
2019-05-16T01:02:28.822Z,100.00
2019-05-16T01:04:58.940Z,100.00
2019-05-16T01:07:27.889Z,100.00
2019-05-16T01:09:58.281Z,100.00
2019-05-16T01:12:28.367Z,100.00
2019-05-16T01:14:58.477Z,100.00
2019-05-16T01:17:28.320Z,100.00
2019-05-16T01:19:57.852Z,100.00
2019-05-16T01:22:28.871Z,100.00
2019-05-16T01:24:58.469Z,100.00
2019-05-16T01:27:27.848Z,100.00
2019-05-16T01:29:58.357Z,100.00
2019-05-16T01:32:31.823Z,100.00
2019-05-16T01:34:58.931Z,100.00
2019-05-16T01:37:27.930Z,100.00
2019-05-16T01:39:58.587Z,100.00
2019-05-16T01:42:27.854Z,100.00
2019-05-16T01:44:57.838Z,100.00
2019-05-16T01:47:28.675Z,100.00
2019-05-16T01:49:58.005Z,100.00
2019-05-16T01:52:28.909Z,100.00
2019-05-16T01:54:58.711Z,100.00
2019-05-16T01:57:28.236Z,100.00
2019-05-16T01:59:58.753Z,100.00
2019-05-16T02:02:28.915Z,100.00
2019-05-16T02:04:59.026Z,100.00
2019-05-16T02:07:28.433Z,100.00
2019-05-16T02:09:58.264Z,100.00
2019-05-16T02:12:27.729Z,100.00
2019-05-16T02:14:58.578Z,100.00
2019-05-16T02:17:28.895Z,100.00
2019-05-16T02:19:57.833Z,100.00
2019-05-16T02:22:28.500Z,100.00
2019-05-16T02:24:58.512Z,100.00
2019-05-16T02:27:28.735Z,100.00
2019-05-16T02:29:57.457Z,100.00
2019-05-16T02:32:25.981Z,100.00
2019-05-16T02:34:54.457Z,100.00
2019-05-16T02:37:29.043Z,100.00
2019-05-16T02:39:54.634Z,100.00
2019-05-16T02:42:23.359Z,100.00
2019-05-16T02:44:51.739Z,100.00
2019-05-16T02:47:21.217Z,100.00
2019-05-16T02:49:50.643Z,100.00
2019-05-16T02:52:21.724Z,100.00
2019-05-16T02:54:51.723Z,100.00
2019-05-16T02:57:21.168Z,100.00
2019-05-16T02:59:51.030Z,100.00
2019-05-16T03:02:20.624Z,100.00
2019-05-16T03:04:51.775Z,100.00
2019-05-16T03:07:36.562Z,100.00
2019-05-16T03:09:53.214Z,100.00
2019-05-16T03:12:23.724Z,100.00
2019-05-16T03:14:54.617Z,100.00
2019-05-16T03:17:25.852Z,100.00
2019-05-16T03:19:57.494Z,100.00
2019-05-16T03:22:31.240Z,100.00
2019-05-16T03:25:01.141Z,100.00
2019-05-16T03:27:30.520Z,100.00
2019-05-16T03:30:01.788Z,100.00
2019-05-16T03:32:33.972Z,100.00
2019-05-16T03:35:05.222Z,100.00
2019-05-16T03:37:30.946Z,100.00
2019-05-16T03:40:00.572Z,100.00
2019-05-16T03:42:31.118Z,100.00
2019-05-16T03:45:02.149Z,100.00
2019-05-16T03:47:31.297Z,100.00
2019-05-16T03:50:00.799Z,100.00
2019-05-16T03:52:31.108Z,100.00
2019-05-16T03:55:01.657Z,100.00
2019-05-16T03:57:30.821Z,100.00
2019-05-16T04:00:00.557Z,100.00
2019-05-16T04:02:30.952Z,100.00
2019-05-16T04:05:01.741Z,100.00
2019-05-16T04:07:31.670Z,100.00
2019-05-16T04:10:02.184Z,100.00
2019-05-16T04:12:31.128Z,100.00
2019-05-16T04:15:01.881Z,100.00
2019-05-16T04:17:31.696Z,100.00
2019-05-16T04:20:01.926Z,100.00
2019-05-16T04:22:31.808Z,100.00
2019-05-16T04:25:01.932Z,100.00
2019-05-16T04:27:31.280Z,100.00
2019-05-16T04:30:01.544Z,100.00
2019-05-16T04:32:31.436Z,100.00
2019-05-16T04:35:02.630Z,100.00
2019-05-16T04:37:31.508Z,100.00
2019-05-16T04:40:01.225Z,100.00
2019-05-16T04:42:31.222Z,100.00
2019-05-16T04:45:01.243Z,100.00
2019-05-16T04:47:31.661Z,100.00
2019-05-16T04:50:01.821Z,100.00
2019-05-16T04:52:30.952Z,100.00
2019-05-16T04:55:00.703Z,100.00
2019-05-16T04:57:31.230Z,100.00
2019-05-16T05:00:02.338Z,100.00
2019-05-16T05:02:31.124Z,100.00
2019-05-16T05:05:01.304Z,100.00
2019-05-16T05:07:31.348Z,100.00
2019-05-16T05:10:00.764Z,100.00
2019-05-16T05:12:31.485Z,100.00
2019-05-16T05:15:01.247Z,100.00
2019-05-16T05:17:30.758Z,100.00
2019-05-16T05:20:01.021Z,100.00
2019-05-16T05:22:30.440Z,100.00
2019-05-16T05:25:00.132Z,100.00
2019-05-16T05:27:30.286Z,100.00
2019-05-16T05:30:00.984Z,100.00
2019-05-16T05:32:30.541Z,100.00
2019-05-16T05:35:20.651Z,100.00
2019-05-16T05:37:50.812Z,100.00
2019-05-16T05:40:20.041Z,100.00
2019-05-16T05:42:50.457Z,100.00
2019-05-16T05:45:20.150Z,100.00
2019-05-16T05:47:50.552Z,100.00
2019-05-16T05:50:20.282Z,100.00
2019-05-16T05:52:51.182Z,100.00
2019-05-16T05:55:20.053Z,100.00
2019-05-16T05:57:50.640Z,100.00
2019-05-16T06:00:21.034Z,100.00
2019-05-16T06:02:50.801Z,100.00
2019-05-16T06:05:20.200Z,100.00
2019-05-16T06:07:50.983Z,100.00
2019-05-16T06:10:19.992Z,100.00
2019-05-16T06:12:50.061Z,100.00
2019-05-16T06:15:20.263Z,100.00
2019-05-16T06:17:50.878Z,100.00
2019-05-16T06:20:20.278Z,100.00
2019-05-16T06:22:50.901Z,100.00
2019-05-16T06:25:22.761Z,100.00
2019-05-16T06:27:51.139Z,100.00
2019-05-16T06:30:21.525Z,100.00
2019-05-16T06:32:50.330Z,100.00
2019-05-16T06:35:20.558Z,100.00
2019-05-16T06:37:50.035Z,100.00
2019-05-16T06:40:20.308Z,100.00
2019-05-16T06:42:50.928Z,100.00
2019-05-16T06:45:20.504Z,100.00
2019-05-16T06:47:50.426Z,100.00
2019-05-16T06:50:20.921Z,100.00
2019-05-16T06:52:50.237Z,100.00
2019-05-16T06:55:20.502Z,100.00
2019-05-16T06:57:50.314Z,100.00
2019-05-16T07:00:21.053Z,100.00
2019-05-16T07:02:50.284Z,100.00
2019-05-16T07:05:20.771Z,100.00
2019-05-16T07:07:50.908Z,100.00
2019-05-16T07:10:20.402Z,100.00
2019-05-16T07:12:50.416Z,100.00
2019-05-16T07:15:20.684Z,100.00
2019-05-16T07:17:50.703Z,100.00
2019-05-16T07:20:21.081Z,100.00
2019-05-16T07:22:50.410Z,100.00
2019-05-16T07:25:20.812Z,100.00
2019-05-16T07:27:51.031Z,100.00
2019-05-16T07:30:20.782Z,100.00
2019-05-16T07:32:50.015Z,100.00
2019-05-16T07:35:20.469Z,100.00
2019-05-16T07:37:50.120Z,100.00
2019-05-16T07:40:25.687Z,100.00
2019-05-16T07:42:51.040Z,100.00
2019-05-16T07:45:20.450Z,100.00
2019-05-16T07:47:50.945Z,100.00
2019-05-16T07:50:20.348Z,100.00
2019-05-16T07:52:51.178Z,100.00
2019-05-16T07:55:20.921Z,100.00
2019-05-16T07:57:50.610Z,100.00
2019-05-16T08:00:21.667Z,100.00
2019-05-16T08:02:50.763Z,100.00
2019-05-16T08:05:21.106Z,100.00
2019-05-16T08:07:51.255Z,100.00
2019-05-16T08:10:37.028Z,100.00
2019-05-16T08:12:51.539Z,100.00
2019-05-16T08:15:21.389Z,100.00
2019-05-16T08:17:51.267Z,100.00
2019-05-16T08:20:21.314Z,100.00
2019-05-16T08:22:50.953Z,100.00
2019-05-16T08:25:20.481Z,100.00
2019-05-16T08:27:51.998Z,100.00
2019-05-16T08:30:21.041Z,100.00
2019-05-16T08:32:52.892Z,100.00
2019-05-16T08:35:21.308Z,100.00
2019-05-16T08:37:51.461Z,100.00
2019-05-16T08:40:21.663Z,100.00
2019-05-16T08:42:51.989Z,100.00
2019-05-16T08:45:21.320Z,100.00
2019-05-16T08:47:52.626Z,100.00
2019-05-16T08:50:21.738Z,100.00
2019-05-16T08:52:52.923Z,100.00
2019-05-16T08:55:21.784Z,100.00
2019-05-16T09:00:22.695Z,100.00
2019-05-16T09:02:52.389Z,100.00
2019-05-16T09:05:22.660Z,100.00
2019-05-16T09:08:00.109Z,100.00
2019-05-16T09:10:31.975Z,100.00
2019-05-16T09:12:52.530Z,100.00
2019-05-16T09:15:21.042Z,100.00
2019-05-16T09:17:49.635Z,100.00
2019-05-16T09:20:18.416Z,100.00
2019-05-16T09:22:48.176Z,100.00
2019-05-16T09:25:18.510Z,100.00
2019-05-16T09:27:47.368Z,100.00
2019-05-16T09:30:17.454Z,99.97
2019-05-16T09:32:47.983Z,100.00
2019-05-16T09:35:17.538Z,99.83
2019-05-16T09:37:47.313Z,98.01
2019-05-16T09:40:17.613Z,97.56
2019-05-16T09:42:47.335Z,99.77
2019-05-16T09:45:17.225Z,100.00
2019-05-16T09:47:48.504Z,100.00
2019-05-16T09:50:17.646Z,100.00
2019-05-16T09:52:47.299Z,100.00
2019-05-16T09:55:17.549Z,100.00
2019-05-16T09:57:47.036Z,100.00
2019-05-16T10:00:17.970Z,100.00
2019-05-16T10:02:47.649Z,100.00
2019-05-16T10:05:18.407Z,100.00
2019-05-16T10:07:47.338Z,97.92
2019-05-16T10:10:17.136Z,99.67
2019-05-16T10:12:45.894Z,97.71
2019-05-16T10:15:17.454Z,97.52
2019-05-16T10:17:47.724Z,97.56
2019-05-16T10:20:17.197Z,96.77
2019-05-16T10:22:50.074Z,94.99
2019-05-16T10:25:19.056Z,94.31
2019-05-16T10:27:47.523Z,95.45
2019-05-16T10:30:18.649Z,95.78
2019-05-16T10:32:47.975Z,96.16
2019-05-16T10:35:17.358Z,94.65
2019-05-16T10:37:47.079Z,94.95
2019-05-16T10:40:18.231Z,95.69
2019-05-16T10:42:47.416Z,95.04
2019-05-16T10:45:16.652Z,95.99
2019-05-16T10:47:47.855Z,97.24
2019-05-16T10:50:16.802Z,96.20
2019-05-16T10:52:48.884Z,95.90
2019-05-16T10:55:17.643Z,97.32
2019-05-16T10:57:47.526Z,97.34
2019-05-16T11:00:39.635Z,96.75
2019-05-16T11:02:48.638Z,98.12
2019-05-16T11:05:28.836Z,97.96
2019-05-16T11:07:52.312Z,98.77
2019-05-16T11:10:18.615Z,97.84
2019-05-16T11:12:54.839Z,96.82
2019-05-16T11:15:18.212Z,97.43
2019-05-16T11:17:46.588Z,97.51
2019-05-16T11:20:20.209Z,96.92
2019-05-16T11:22:49.371Z,97.00
2019-05-16T11:25:25.088Z,97.76
2019-05-16T11:27:48.538Z,97.27
2019-05-16T11:30:18.463Z,97.45
2019-05-16T11:32:47.246Z,99.22
2019-05-16T11:35:17.342Z,99.67
2019-05-16T11:37:47.187Z,100.00
2019-05-16T11:40:17.954Z,100.00
2019-05-16T11:42:51.865Z,100.00
2019-05-16T11:45:17.560Z,100.00
2019-05-16T11:47:47.079Z,100.00
2019-05-16T11:50:17.575Z,100.00
2019-05-16T11:52:47.663Z,100.00
2019-05-16T11:55:16.533Z,100.00
2019-05-16T11:57:47.386Z,100.00
2019-05-16T12:00:17.801Z,100.00
2019-05-16T12:02:47.758Z,100.00
2019-05-16T12:05:39.473Z,100.00
2019-05-16T12:08:08.203Z,100.00
2019-05-16T12:10:36.999Z,100.00
2019-05-16T12:13:09.061Z,100.00
2019-05-16T12:15:36.724Z,100.00
2019-05-16T12:18:08.335Z,100.00
2019-05-16T12:20:36.093Z,100.00
2019-05-16T12:23:07.759Z,100.00
2019-05-16T12:25:36.841Z,100.00
2019-05-16T12:28:08.135Z,100.00
2019-05-16T12:30:37.650Z,100.00
2019-05-16T12:33:07.416Z,100.00
2019-05-16T12:35:36.859Z,100.00
2019-05-16T12:38:08.118Z,100.00
2019-05-16T12:40:37.633Z,100.00
2019-05-16T12:43:07.750Z,100.00
2019-05-16T12:45:38.647Z,100.00
2019-05-16T12:48:07.233Z,100.00
2019-05-16T12:50:38.782Z,100.00
2019-05-16T12:53:08.039Z,100.00
2019-05-16T12:55:37.102Z,100.00
2019-05-16T12:58:13.695Z,100.00
2019-05-16T13:00:37.037Z,100.00
2019-05-16T13:03:07.224Z,100.00
2019-05-16T13:05:37.698Z,100.00
2019-05-16T13:08:06.581Z,100.00
2019-05-16T13:10:37.751Z,100.00
2019-05-16T13:13:07.850Z,100.00
2019-05-16T13:15:37.913Z,100.00
2019-05-16T13:18:07.869Z,100.00
2019-05-16T13:20:39.239Z,100.00
2019-05-16T13:23:14.416Z,100.00
2019-05-16T13:25:38.184Z,100.00
2019-05-16T13:28:08.146Z,100.00
2019-05-16T13:30:37.777Z,100.00
2019-05-16T13:33:07.377Z,100.00
2019-05-16T13:35:37.179Z,100.00
2019-05-16T13:38:07.872Z,100.00
2019-05-16T13:40:36.779Z,100.00
2019-05-16T13:43:09.527Z,100.00
2019-05-16T13:45:37.750Z,100.00
2019-05-16T13:48:08.137Z,100.00
2019-05-16T13:50:39.663Z,100.00
2019-05-16T13:53:07.987Z,100.00
2019-05-16T13:55:37.822Z,100.00
2019-05-16T13:58:07.670Z,100.00
2019-05-16T14:00:37.550Z,100.00
2019-05-16T14:03:07.564Z,100.00
2019-05-16T14:05:38.083Z,100.00
2019-05-16T14:08:06.970Z,100.00
2019-05-16T14:10:37.515Z,100.00
2019-05-16T14:13:07.437Z,100.00
2019-05-16T14:15:36.839Z,100.00
2019-05-16T14:18:07.661Z,100.00
2019-05-16T14:20:37.807Z,100.00
2019-05-16T14:23:08.498Z,100.00
2019-05-16T14:25:38.011Z,100.00
2019-05-16T14:28:07.784Z,100.00
2019-05-16T14:30:37.438Z,100.00
2019-05-16T14:33:13.586Z,100.00
2019-05-16T14:35:37.605Z,100.00
2019-05-16T14:38:06.530Z,100.00
2019-05-16T14:40:37.471Z,100.00
2019-05-16T14:43:08.135Z,100.00
2019-05-16T14:45:37.172Z,100.00
2019-05-16T14:48:07.703Z,100.00
2019-05-16T14:50:37.558Z,100.00
2019-05-16T14:53:07.466Z,100.00
2019-05-16T14:55:38.072Z,94.49
2019-05-16T14:58:07.665Z,90.95
2019-05-16T15:00:38.229Z,92.61
2019-05-16T15:03:08.194Z,93.85
2019-05-16T15:05:42.328Z,87.15
2019-05-16T15:08:08.590Z,84.25
2019-05-16T15:10:37.921Z,81.34
2019-05-16T15:13:07.864Z,80.10
2019-05-16T15:15:37.721Z,78.55
2019-05-16T15:18:08.040Z,79.61
2019-05-16T15:20:38.018Z,76.17
2019-05-16T15:23:07.608Z,78.37
2019-05-16T15:25:37.499Z,76.56
2019-05-16T15:28:07.550Z,75.68
2019-05-16T15:30:39.142Z,76.80
2019-05-16T15:33:08.495Z,79.15
2019-05-16T15:35:38.263Z,79.29
2019-05-16T15:38:08.077Z,78.54
2019-05-16T15:40:37.737Z,80.77
2019-05-16T15:43:07.961Z,81.23
2019-05-16T15:45:43.959Z,81.11
2019-05-16T15:48:10.938Z,79.63
2019-05-16T15:50:39.766Z,79.72
2019-05-16T15:53:08.351Z,80.56
2019-05-16T15:55:37.450Z,77.78
2019-05-16T15:58:09.722Z,78.21
2019-05-16T16:00:42.066Z,81.10
2019-05-16T16:03:11.498Z,78.55
2019-05-16T16:05:39.986Z,79.50
2019-05-16T16:08:08.670Z,80.39
2019-05-16T16:10:38.489Z,79.77
2019-05-16T16:13:07.569Z,79.03
2019-05-16T16:15:49.806Z,78.57
2019-05-16T16:18:09.011Z,77.51
2019-05-16T16:20:37.867Z,80.17
2019-05-16T16:23:06.966Z,82.76
2019-05-16T16:25:35.721Z,84.25
2019-05-16T16:28:07.388Z,82.46
2019-05-16T16:30:37.268Z,81.16
2019-05-16T16:33:19.067Z,80.07
2019-05-16T16:35:37.971Z,81.16
2019-05-16T16:38:07.292Z,81.82
2019-05-16T16:40:37.492Z,83.57
2019-05-16T16:43:07.906Z,83.12
2019-05-16T16:45:36.800Z,80.71
2019-05-16T16:48:07.605Z,83.37
2019-05-16T16:50:37.085Z,82.93
2019-05-16T16:53:07.157Z,83.60
2019-05-16T16:55:37.031Z,84.34
2019-05-16T16:58:09.235Z,85.79
2019-05-16T17:00:37.839Z,87.16
2019-05-16T17:03:10.350Z,88.16
2019-05-16T17:05:37.393Z,89.46
2019-05-16T17:08:07.561Z,88.62
2019-05-16T17:10:37.969Z,88.71
2019-05-16T17:13:07.048Z,86.61
2019-05-16T17:15:36.684Z,88.31
2019-05-16T17:18:06.984Z,90.03
2019-05-16T17:20:37.183Z,89.72
2019-05-16T17:23:06.849Z,91.64
2019-05-16T17:25:36.902Z,88.64
2019-05-16T17:28:06.938Z,88.17
2019-05-16T17:30:36.779Z,90.05
2019-05-16T17:33:07.698Z,87.68
2019-05-16T17:35:38.934Z,88.95
2019-05-16T17:38:06.987Z,91.06
2019-05-16T17:40:38.047Z,91.22
2019-05-16T17:43:07.264Z,90.47
2019-05-16T17:45:37.477Z,94.80
2019-05-16T17:48:06.973Z,92.58
2019-05-16T17:50:37.391Z,90.91
2019-05-16T17:53:07.216Z,91.01
2019-05-16T17:55:37.028Z,90.83
2019-05-16T17:58:08.780Z,91.90
2019-05-16T18:00:36.625Z,87.90
2019-05-16T18:03:06.639Z,89.63
2019-05-16T18:05:37.144Z,86.51
2019-05-16T18:08:07.377Z,89.37
2019-05-16T18:10:36.559Z,90.50
2019-05-16T18:13:07.614Z,88.83
2019-05-16T18:15:36.750Z,91.69
2019-05-16T18:18:07.234Z,89.01
2019-05-16T18:20:37.207Z,91.63
2019-05-16T18:23:07.041Z,91.78
2019-05-16T18:25:36.720Z,89.63
2019-05-16T18:28:07.887Z,90.46
2019-05-16T18:30:36.624Z,92.30
2019-05-16T18:33:07.266Z,90.91
2019-05-16T18:35:36.982Z,92.16
2019-05-16T18:38:07.340Z,92.66
2019-05-16T18:40:36.850Z,91.77
2019-05-16T18:43:08.260Z,93.14
2019-05-16T18:45:36.742Z,90.29
2019-05-16T18:48:07.364Z,89.58
2019-05-16T18:50:37.810Z,91.31
2019-05-16T18:53:07.699Z,94.96
2019-05-16T18:55:37.046Z,97.49
2019-05-16T18:58:08.425Z,100.00
2019-05-16T19:00:37.528Z,100.00
2019-05-16T19:03:07.655Z,100.00
2019-05-16T19:05:37.406Z,100.00
2019-05-16T19:08:07.345Z,100.00
2019-05-16T19:10:37.111Z,100.00
2019-05-16T19:13:08.207Z,100.00
2019-05-16T19:15:37.685Z,100.00
2019-05-16T19:18:06.951Z,100.00
2019-05-16T19:20:37.419Z,100.00
2019-05-16T19:23:07.508Z,100.00
2019-05-16T19:25:36.519Z,100.00
2019-05-16T19:28:06.880Z,100.00
2019-05-16T19:30:37.380Z,100.00
2019-05-16T19:33:07.063Z,100.00
2019-05-16T19:35:35.865Z,100.00
2019-05-16T19:38:06.699Z,100.00
2019-05-16T19:40:37.551Z,100.00
2019-05-16T19:43:07.246Z,100.00
2019-05-16T19:45:37.293Z,100.00
2019-05-16T19:48:07.253Z,100.00
2019-05-16T19:50:37.124Z,100.00
2019-05-16T19:53:07.709Z,100.00
2019-05-16T19:55:36.681Z,100.00
2019-05-16T19:58:06.985Z,100.00
2019-05-16T20:00:37.573Z,100.00
2019-05-16T20:03:07.742Z,100.00
2019-05-16T20:05:37.599Z,100.00
2019-05-16T20:08:06.816Z,100.00
2019-05-16T20:10:36.679Z,100.00
2019-05-16T20:13:07.700Z,100.00
2019-05-16T20:15:36.626Z,100.00
2019-05-16T20:18:07.662Z,100.00
2019-05-16T20:20:37.205Z,100.00
2019-05-16T20:23:06.082Z,100.00
2019-05-16T20:25:36.661Z,100.00
2019-05-16T20:28:08.484Z,100.00
2019-05-16T20:30:37.095Z,100.00
2019-05-16T20:33:08.911Z,100.00
2019-05-16T20:35:37.521Z,100.00
2019-05-16T20:38:07.006Z,100.00
2019-05-16T20:40:37.571Z,100.00
2019-05-16T20:43:07.758Z,100.00
2019-05-16T20:45:39.556Z,100.00
2019-05-16T20:48:12.017Z,100.00
2019-05-16T20:50:37.610Z,100.00
2019-05-16T20:53:07.226Z,100.00
2019-05-16T20:55:37.719Z,100.00
2019-05-16T20:58:07.568Z,100.00
2019-05-16T21:00:37.787Z,100.00
2019-05-16T21:03:07.269Z,100.00
2019-05-16T21:05:38.360Z,100.00
2019-05-16T21:08:06.760Z,100.00
2019-05-16T21:10:35.446Z,100.00
2019-05-16T21:13:06.706Z,100.00
2019-05-16T21:15:37.056Z,100.00
2019-05-16T21:18:07.505Z,100.00
2019-05-16T21:20:38.900Z,100.00
2019-05-16T21:23:07.971Z,100.00
2019-05-16T21:25:37.253Z,100.00
2019-05-16T21:28:07.962Z,100.00
2019-05-16T21:30:37.139Z,100.00
2019-05-16T21:33:05.969Z,100.00
2019-05-16T21:35:36.494Z,100.00
2019-05-16T21:38:08.742Z,100.00
2019-05-16T21:40:37.113Z,100.00
2019-05-16T21:43:07.564Z,100.00
2019-05-16T21:45:37.126Z,100.00
2019-05-16T21:48:07.434Z,100.00
2019-05-16T21:50:36.846Z,100.00
2019-05-16T21:53:07.301Z,100.00
2019-05-16T21:55:37.108Z,100.00
2019-05-16T21:58:05.962Z,100.00
2019-05-16T22:00:42.249Z,100.00
2019-05-16T22:03:11.141Z,100.00
2019-05-16T22:05:39.891Z,100.00
2019-05-16T22:08:11.693Z,100.00
2019-05-16T22:10:39.550Z,100.00
2019-05-16T22:13:08.347Z,100.00
2019-05-16T22:15:37.175Z,100.00
2019-05-16T22:18:07.206Z,100.00
2019-05-16T22:20:36.363Z,100.00
2019-05-16T22:23:07.089Z,100.00
2019-05-16T22:25:36.133Z,100.00
2019-05-16T22:28:07.168Z,100.00
2019-05-16T22:30:36.539Z,100.00
2019-05-16T22:33:08.856Z,100.00
2019-05-16T22:35:37.549Z,100.00
2019-05-16T22:38:06.663Z,100.00
2019-05-16T22:40:37.408Z,100.00
2019-05-16T22:43:07.222Z,100.00
2019-05-16T22:45:37.335Z,100.00
2019-05-16T22:48:07.008Z,100.00
2019-05-16T22:50:36.433Z,100.00
2019-05-16T22:53:06.462Z,100.00
2019-05-16T22:55:37.200Z,100.00
2019-05-16T22:58:07.396Z,100.00
2019-05-16T23:00:39.315Z,100.00
2019-05-16T23:03:06.794Z,100.00
2019-05-16T23:05:36.887Z,100.00
2019-05-16T23:08:09.456Z,100.00
2019-05-16T23:10:36.868Z,100.00
2019-05-16T23:13:06.787Z,100.00
2019-05-16T23:15:36.173Z,100.00
2019-05-16T23:18:06.997Z,100.00
2019-05-16T23:20:36.994Z,100.00
2019-05-16T23:23:07.161Z,100.00
2019-05-16T23:25:37.158Z,100.00
2019-05-16T23:28:07.764Z,100.00
2019-05-16T23:30:36.672Z,100.00
2019-05-16T23:33:07.256Z,100.00
2019-05-16T23:35:37.677Z,100.00
2019-05-16T23:38:19.070Z,100.00
2019-05-16T23:40:37.521Z,100.00
2019-05-16T23:43:07.622Z,100.00
2019-05-16T23:45:37.584Z,100.00
2019-05-16T23:48:10.518Z,100.00
2019-05-16T23:50:37.057Z,100.00
2019-05-16T23:53:07.366Z,100.00
2019-05-16T23:55:37.178Z,100.00
2019-05-16T23:58:06.917Z,100.00
